sensor_id;sensor_type;location;lat;lon;timestamp;P1;durP1;ratioP1;P2;durP2;ratioP2
61785;SDS011;47692;53.714;11.372;2023-02-02T00:00:29;13.82;;;2.38;;
61785;SDS011;47692;53.714;11.372;2023-02-02T00:02:54;16.10;;;2.22;;
61785;SDS011;47692;53.714;11.372;2023-02-02T00:05:19;18.52;;;1.95;;
61785;SDS011;47692;53.714;11.372;2023-02-02T00:07:44;15.60;;;2.90;;
61785;SDS011;47692;53.714;11.372;2023-02-02T00:10:10;13.23;;;1.90;;
61785;SDS011;47692;53.714;11.372;2023-02-02T00:12:35;11.13;;;2.20;;
61785;SDS011;47692;53.714;11.372;2023-02-02T00:15:00;7.78;;;1.73;;
61785;SDS011;47692;53.714;11.372;2023-02-02T00:17:26;13.07;;;1.50;;
61785;SDS011;47692;53.714;11.372;2023-02-02T00:19:51;12.48;;;1.80;;
61785;SDS011;47692;53.714;11.372;2023-02-02T00:22:16;15.00;;;1.92;;
61785;SDS011;47692;53.714;11.372;2023-02-02T00:24:41;14.70;;;1.80;;
61785;SDS011;47692;53.714;11.372;2023-02-02T00:27:07;5.68;;;1.48;;
61785;SDS011;47692;53.714;11.372;2023-02-02T00:29:33;11.27;;;1.30;;
61785;SDS011;47692;53.714;11.372;2023-02-02T00:31:58;11.35;;;1.83;;
61785;SDS011;47692;53.714;11.372;2023-02-02T00:34:23;16.85;;;1.60;;
61785;SDS011;47692;53.714;11.372;2023-02-02T00:36:49;7.55;;;1.65;;
61785;SDS011;47692;53.714;11.372;2023-02-02T00:39:22;6.25;;;1.42;;
61785;SDS011;47692;53.714;11.372;2023-02-02T00:41:51;12.38;;;2.00;;
61785;SDS011;47692;53.714;11.372;2023-02-02T00:44:17;13.10;;;1.63;;
61785;SDS011;47692;53.714;11.372;2023-02-02T00:47:01;12.43;;;2.33;;
61785;SDS011;47692;53.714;11.372;2023-02-02T00:49:27;8.57;;;1.75;;
61785;SDS011;47692;53.714;11.372;2023-02-02T00:51:53;8.30;;;2.20;;
61785;SDS011;47692;53.714;11.372;2023-02-02T00:54:18;10.43;;;1.80;;
61785;SDS011;47692;53.714;11.372;2023-02-02T00:56:43;13.93;;;1.42;;
61785;SDS011;47692;53.714;11.372;2023-02-02T00:59:09;8.15;;;1.30;;
61785;SDS011;47692;53.714;11.372;2023-02-02T01:01:34;7.88;;;1.45;;
61785;SDS011;47692;53.714;11.372;2023-02-02T01:04:00;11.75;;;1.63;;
61785;SDS011;47692;53.714;11.372;2023-02-02T01:06:25;12.05;;;1.30;;
61785;SDS011;47692;53.714;11.372;2023-02-02T01:08:51;7.32;;;1.38;;
61785;SDS011;47692;53.714;11.372;2023-02-02T01:11:16;8.77;;;1.20;;
61785;SDS011;47692;53.714;11.372;2023-02-02T01:13:42;4.57;;;1.23;;
61785;SDS011;47692;53.714;11.372;2023-02-02T01:16:08;8.20;;;1.10;;
61785;SDS011;47692;53.714;11.372;2023-02-02T01:18:34;9.02;;;1.80;;
61785;SDS011;47692;53.714;11.372;2023-02-02T01:21:01;8.27;;;2.03;;
61785;SDS011;47692;53.714;11.372;2023-02-02T01:23:28;11.82;;;1.55;;
61785;SDS011;47692;53.714;11.372;2023-02-02T01:25:54;8.15;;;1.13;;
61785;SDS011;47692;53.714;11.372;2023-02-02T01:28:21;7.63;;;1.17;;
61785;SDS011;47692;53.714;11.372;2023-02-02T01:30:47;5.45;;;1.02;;
61785;SDS011;47692;53.714;11.372;2023-02-02T01:33:13;4.65;;;1.00;;
61785;SDS011;47692;53.714;11.372;2023-02-02T01:35:44;13.63;;;2.05;;
61785;SDS011;47692;53.714;11.372;2023-02-02T01:38:17;12.77;;;1.77;;
61785;SDS011;47692;53.714;11.372;2023-02-02T01:40:44;5.75;;;1.05;;
61785;SDS011;47692;53.714;11.372;2023-02-02T01:45:52;6.35;;;1.15;;
61785;SDS011;47692;53.714;11.372;2023-02-02T01:48:19;5.50;;;1.10;;
61785;SDS011;47692;53.714;11.372;2023-02-02T01:50:52;9.20;;;1.13;;
61785;SDS011;47692;53.714;11.372;2023-02-02T01:53:20;9.77;;;1.27;;
61785;SDS011;47692;53.714;11.372;2023-02-02T01:55:46;8.13;;;1.23;;
61785;SDS011;47692;53.714;11.372;2023-02-02T01:58:17;9.25;;;1.48;;
61785;SDS011;47692;53.714;11.372;2023-02-02T02:00:46;7.40;;;1.27;;
61785;SDS011;47692;53.714;11.372;2023-02-02T02:03:13;10.45;;;1.70;;
61785;SDS011;47692;53.714;11.372;2023-02-02T02:05:42;11.88;;;1.38;;
61785;SDS011;47692;53.714;11.372;2023-02-02T02:08:18;12.30;;;1.15;;
61785;SDS011;47692;53.714;11.372;2023-02-02T02:10:47;6.40;;;1.30;;
61785;SDS011;47692;53.714;11.372;2023-02-02T02:13:13;9.35;;;2.15;;
61785;SDS011;47692;53.714;11.372;2023-02-02T02:15:42;12.00;;;1.30;;
61785;SDS011;47692;53.714;11.372;2023-02-02T02:18:48;11.65;;;1.20;;
61785;SDS011;47692;53.714;11.372;2023-02-02T02:33:56;15.57;;;1.70;;
61785;SDS011;47692;53.714;11.372;2023-02-02T02:42:09;9.32;;;1.63;;
61785;SDS011;47692;53.714;11.372;2023-02-02T02:44:38;11.18;;;1.98;;
61785;SDS011;47692;53.714;11.372;2023-02-02T02:47:05;12.50;;;1.25;;
61785;SDS011;47692;53.714;11.372;2023-02-02T02:49:31;8.77;;;1.38;;
61785;SDS011;47692;53.714;11.372;2023-02-02T02:51:56;5.35;;;1.38;;
61785;SDS011;47692;53.714;11.372;2023-02-02T02:54:39;10.73;;;1.55;;
61785;SDS011;47692;53.714;11.372;2023-02-02T03:02:47;7.38;;;1.58;;
61785;SDS011;47692;53.714;11.372;2023-02-02T03:05:31;16.48;;;1.50;;
61785;SDS011;47692;53.714;11.372;2023-02-02T03:08:06;3.50;;;0.88;;
61785;SDS011;47692;53.714;11.372;2023-02-02T03:10:33;11.27;;;2.13;;
61785;SDS011;47692;53.714;11.372;2023-02-02T03:13:03;8.98;;;1.23;;
61785;SDS011;47692;53.714;11.372;2023-02-02T03:15:32;11.18;;;1.13;;
61785;SDS011;47692;53.714;11.372;2023-02-02T03:17:57;9.57;;;1.10;;
61785;SDS011;47692;53.714;11.372;2023-02-02T03:20:22;13.32;;;1.27;;
61785;SDS011;47692;53.714;11.372;2023-02-02T03:22:48;12.18;;;2.47;;
61785;SDS011;47692;53.714;11.372;2023-02-02T03:25:13;5.15;;;1.25;;
61785;SDS011;47692;53.714;11.372;2023-02-02T03:27:39;7.03;;;1.23;;
61785;SDS011;47692;53.714;11.372;2023-02-02T03:30:09;8.90;;;1.15;;
61785;SDS011;47692;53.714;11.372;2023-02-02T03:32:36;5.35;;;1.10;;
61785;SDS011;47692;53.714;11.372;2023-02-02T03:35:03;9.27;;;1.75;;
61785;SDS011;47692;53.714;11.372;2023-02-02T03:37:29;7.68;;;1.17;;
61785;SDS011;47692;53.714;11.372;2023-02-02T03:39:54;8.20;;;1.60;;
61785;SDS011;47692;53.714;11.372;2023-02-02T03:42:20;9.32;;;1.63;;
61785;SDS011;47692;53.714;11.372;2023-02-02T03:44:45;9.52;;;1.40;;
61785;SDS011;47692;53.714;11.372;2023-02-02T03:47:10;6.90;;;1.42;;
61785;SDS011;47692;53.714;11.372;2023-02-02T03:49:36;10.45;;;1.30;;
61785;SDS011;47692;53.714;11.372;2023-02-02T03:52:01;10.18;;;1.40;;
61785;SDS011;47692;53.714;11.372;2023-02-02T03:54:28;8.25;;;1.33;;
61785;SDS011;47692;53.714;11.372;2023-02-02T03:56:54;8.98;;;1.30;;
61785;SDS011;47692;53.714;11.372;2023-02-02T03:59:19;10.48;;;1.85;;
61785;SDS011;47692;53.714;11.372;2023-02-02T04:01:44;11.98;;;2.47;;
61785;SDS011;47692;53.714;11.372;2023-02-02T04:04:10;15.18;;;1.10;;
61785;SDS011;47692;53.714;11.372;2023-02-02T04:06:35;8.55;;;1.40;;
61785;SDS011;47692;53.714;11.372;2023-02-02T04:09:01;10.68;;;1.90;;
61785;SDS011;47692;53.714;11.372;2023-02-02T04:11:26;13.13;;;1.25;;
61785;SDS011;47692;53.714;11.372;2023-02-02T04:13:51;10.38;;;1.33;;
61785;SDS011;47692;53.714;11.372;2023-02-02T04:16:17;11.93;;;2.38;;
61785;SDS011;47692;53.714;11.372;2023-02-02T04:18:42;8.88;;;1.40;;
61785;SDS011;47692;53.714;11.372;2023-02-02T04:21:07;11.80;;;1.70;;
61785;SDS011;47692;53.714;11.372;2023-02-02T04:23:33;12.55;;;1.45;;
61785;SDS011;47692;53.714;11.372;2023-02-02T04:25:59;14.02;;;1.60;;
61785;SDS011;47692;53.714;11.372;2023-02-02T04:28:25;10.50;;;1.20;;
61785;SDS011;47692;53.714;11.372;2023-02-02T04:30:51;8.35;;;1.13;;
61785;SDS011;47692;53.714;11.372;2023-02-02T04:33:18;10.50;;;1.17;;
61785;SDS011;47692;53.714;11.372;2023-02-02T04:35:44;6.13;;;1.23;;
61785;SDS011;47692;53.714;11.372;2023-02-02T04:38:09;8.40;;;1.35;;
61785;SDS011;47692;53.714;11.372;2023-02-02T04:40:39;8.88;;;1.50;;
61785;SDS011;47692;53.714;11.372;2023-02-02T04:43:06;9.57;;;2.20;;
61785;SDS011;47692;53.714;11.372;2023-02-02T04:45:31;7.80;;;1.30;;
61785;SDS011;47692;53.714;11.372;2023-02-02T04:47:57;7.03;;;1.27;;
61785;SDS011;47692;53.714;11.372;2023-02-02T04:50:22;7.63;;;1.38;;
61785;SDS011;47692;53.714;11.372;2023-02-02T04:52:48;6.57;;;1.13;;
61785;SDS011;47692;53.714;11.372;2023-02-02T04:55:13;8.38;;;1.42;;
61785;SDS011;47692;53.714;11.372;2023-02-02T04:57:39;7.32;;;1.25;;
61785;SDS011;47692;53.714;11.372;2023-02-02T05:00:05;8.63;;;1.23;;
61785;SDS011;47692;53.714;11.372;2023-02-02T05:02:34;9.20;;;1.20;;
61785;SDS011;47692;53.714;11.372;2023-02-02T05:04:59;10.35;;;1.13;;
61785;SDS011;47692;53.714;11.372;2023-02-02T05:07:25;9.43;;;1.15;;
61785;SDS011;47692;53.714;11.372;2023-02-02T05:09:50;11.63;;;1.75;;
61785;SDS011;47692;53.714;11.372;2023-02-02T05:12:15;8.73;;;1.17;;
61785;SDS011;47692;53.714;11.372;2023-02-02T05:14:40;6.75;;;1.15;;
61785;SDS011;47692;53.714;11.372;2023-02-02T05:17:06;12.32;;;1.20;;
61785;SDS011;47692;53.714;11.372;2023-02-02T05:19:31;11.35;;;1.75;;
61785;SDS011;47692;53.714;11.372;2023-02-02T05:21:56;11.43;;;1.60;;
61785;SDS011;47692;53.714;11.372;2023-02-02T05:24:22;17.38;;;2.53;;
61785;SDS011;47692;53.714;11.372;2023-02-02T05:26:47;15.70;;;1.70;;
61785;SDS011;47692;53.714;11.372;2023-02-02T05:29:12;5.32;;;0.85;;
61785;SDS011;47692;53.714;11.372;2023-02-02T05:31:38;9.05;;;1.50;;
61785;SDS011;47692;53.714;11.372;2023-02-02T05:34:03;11.45;;;1.42;;
61785;SDS011;47692;53.714;11.372;2023-02-02T05:36:30;13.05;;;1.88;;
61785;SDS011;47692;53.714;11.372;2023-02-02T05:38:56;5.53;;;1.38;;
61785;SDS011;47692;53.714;11.372;2023-02-02T05:41:22;10.23;;;1.40;;
61785;SDS011;47692;53.714;11.372;2023-02-02T05:43:47;14.00;;;1.38;;
61785;SDS011;47692;53.714;11.372;2023-02-02T05:46:12;14.18;;;1.38;;
61785;SDS011;47692;53.714;11.372;2023-02-02T05:48:37;10.82;;;1.75;;
61785;SDS011;47692;53.714;11.372;2023-02-02T05:51:09;14.57;;;1.70;;
61785;SDS011;47692;53.714;11.372;2023-02-02T05:53:38;13.02;;;2.35;;
61785;SDS011;47692;53.714;11.372;2023-02-02T05:56:04;11.82;;;1.40;;
61785;SDS011;47692;53.714;11.372;2023-02-02T05:58:29;9.27;;;1.55;;
61785;SDS011;47692;53.714;11.372;2023-02-02T06:00:55;11.90;;;1.45;;
61785;SDS011;47692;53.714;11.372;2023-02-02T06:03:20;10.35;;;1.20;;
61785;SDS011;47692;53.714;11.372;2023-02-02T06:05:45;9.50;;;1.60;;
61785;SDS011;47692;53.714;11.372;2023-02-02T06:08:11;6.55;;;1.42;;
61785;SDS011;47692;53.714;11.372;2023-02-02T06:10:39;14.15;;;2.25;;
61785;SDS011;47692;53.714;11.372;2023-02-02T06:13:05;11.27;;;1.52;;
61785;SDS011;47692;53.714;11.372;2023-02-02T06:15:31;10.60;;;1.40;;
61785;SDS011;47692;53.714;11.372;2023-02-02T06:17:58;10.95;;;1.67;;
61785;SDS011;47692;53.714;11.372;2023-02-02T06:20:24;6.57;;;0.95;;
61785;SDS011;47692;53.714;11.372;2023-02-02T06:22:49;8.07;;;1.17;;
61785;SDS011;47692;53.714;11.372;2023-02-02T06:25:14;5.50;;;1.40;;
61785;SDS011;47692;53.714;11.372;2023-02-02T06:27:40;9.00;;;1.30;;
61785;SDS011;47692;53.714;11.372;2023-02-02T06:30:05;10.57;;;1.80;;
61785;SDS011;47692;53.714;11.372;2023-02-02T06:32:31;10.90;;;1.33;;
61785;SDS011;47692;53.714;11.372;2023-02-02T06:34:57;11.68;;;1.48;;
61785;SDS011;47692;53.714;11.372;2023-02-02T06:37:22;11.65;;;1.90;;
61785;SDS011;47692;53.714;11.372;2023-02-02T06:39:47;7.07;;;1.25;;
61785;SDS011;47692;53.714;11.372;2023-02-02T06:42:13;15.30;;;1.75;;
61785;SDS011;47692;53.714;11.372;2023-02-02T06:44:38;7.35;;;0.95;;
61785;SDS011;47692;53.714;11.372;2023-02-02T06:47:03;14.57;;;1.45;;
61785;SDS011;47692;53.714;11.372;2023-02-02T06:49:29;9.13;;;1.58;;
61785;SDS011;47692;53.714;11.372;2023-02-02T06:51:54;5.53;;;1.05;;
61785;SDS011;47692;53.714;11.372;2023-02-02T06:54:19;9.18;;;1.17;;
61785;SDS011;47692;53.714;11.372;2023-02-02T06:56:45;10.23;;;1.65;;
61785;SDS011;47692;53.714;11.372;2023-02-02T06:59:10;11.40;;;1.95;;
61785;SDS011;47692;53.714;11.372;2023-02-02T07:01:35;8.35;;;1.27;;
61785;SDS011;47692;53.714;11.372;2023-02-02T07:04:00;6.68;;;1.48;;
61785;SDS011;47692;53.714;11.372;2023-02-02T07:06:26;13.38;;;1.70;;
61785;SDS011;47692;53.714;11.372;2023-02-02T07:08:53;9.88;;;1.40;;
61785;SDS011;47692;53.714;11.372;2023-02-02T07:11:19;5.43;;;0.95;;
61785;SDS011;47692;53.714;11.372;2023-02-02T07:13:45;8.65;;;1.17;;
61785;SDS011;47692;53.714;11.372;2023-02-02T07:16:12;8.70;;;1.00;;
61785;SDS011;47692;53.714;11.372;2023-02-02T07:18:38;12.65;;;1.15;;
61785;SDS011;47692;53.714;11.372;2023-02-02T07:21:04;8.18;;;1.75;;
61785;SDS011;47692;53.714;11.372;2023-02-02T07:23:31;9.07;;;1.35;;
61785;SDS011;47692;53.714;11.372;2023-02-02T07:26:04;6.88;;;1.00;;
61785;SDS011;47692;53.714;11.372;2023-02-02T07:28:33;8.57;;;1.17;;
61785;SDS011;47692;53.714;11.372;2023-02-02T07:30:59;4.60;;;0.88;;
61785;SDS011;47692;53.714;11.372;2023-02-02T07:33:24;14.75;;;1.20;;
61785;SDS011;47692;53.714;11.372;2023-02-02T07:35:50;8.38;;;1.23;;
61785;SDS011;47692;53.714;11.372;2023-02-02T07:38:16;7.72;;;0.90;;
61785;SDS011;47692;53.714;11.372;2023-02-02T07:40:42;11.13;;;1.30;;
61785;SDS011;47692;53.714;11.372;2023-02-02T07:43:08;7.97;;;1.23;;
61785;SDS011;47692;53.714;11.372;2023-02-02T07:45:33;8.48;;;1.08;;
61785;SDS011;47692;53.714;11.372;2023-02-02T07:48:00;7.82;;;1.25;;
61785;SDS011;47692;53.714;11.372;2023-02-02T07:50:27;11.95;;;1.10;;
61785;SDS011;47692;53.714;11.372;2023-02-02T07:52:53;6.28;;;1.25;;
61785;SDS011;47692;53.714;11.372;2023-02-02T07:55:19;7.38;;;1.20;;
61785;SDS011;47692;53.714;11.372;2023-02-02T07:57:45;6.70;;;1.20;;
61785;SDS011;47692;53.714;11.372;2023-02-02T08:00:10;4.63;;;0.90;;
61785;SDS011;47692;53.714;11.372;2023-02-02T08:02:36;4.30;;;0.70;;
61785;SDS011;47692;53.714;11.372;2023-02-02T08:05:02;4.82;;;0.80;;
61785;SDS011;47692;53.714;11.372;2023-02-02T08:07:27;6.43;;;0.73;;
61785;SDS011;47692;53.714;11.372;2023-02-02T08:09:53;3.22;;;0.50;;
61785;SDS011;47692;53.714;11.372;2023-02-02T08:12:18;5.97;;;0.80;;
61785;SDS011;47692;53.714;11.372;2023-02-02T08:14:45;3.63;;;0.75;;
61785;SDS011;47692;53.714;11.372;2023-02-02T08:17:10;6.72;;;1.02;;
61785;SDS011;47692;53.714;11.372;2023-02-02T08:19:36;12.40;;;1.42;;
61785;SDS011;47692;53.714;11.372;2023-02-02T08:22:01;6.60;;;0.95;;
61785;SDS011;47692;53.714;11.372;2023-02-02T08:24:26;9.57;;;1.48;;
61785;SDS011;47692;53.714;11.372;2023-02-02T08:26:52;7.03;;;1.10;;
61785;SDS011;47692;53.714;11.372;2023-02-02T08:29:17;10.50;;;1.33;;
61785;SDS011;47692;53.714;11.372;2023-02-02T08:31:43;9.27;;;1.17;;
61785;SDS011;47692;53.714;11.372;2023-02-02T08:34:09;8.20;;;1.00;;
61785;SDS011;47692;53.714;11.372;2023-02-02T08:36:36;3.38;;;0.73;;
61785;SDS011;47692;53.714;11.372;2023-02-02T08:39:06;5.20;;;0.80;;
61785;SDS011;47692;53.714;11.372;2023-02-02T08:41:34;9.43;;;1.50;;
61785;SDS011;47692;53.714;11.372;2023-02-02T08:44:03;5.43;;;1.13;;
61785;SDS011;47692;53.714;11.372;2023-02-02T08:46:29;10.32;;;1.42;;
61785;SDS011;47692;53.714;11.372;2023-02-02T08:48:54;4.28;;;1.10;;
61785;SDS011;47692;53.714;11.372;2023-02-02T08:51:20;15.73;;;1.60;;
61785;SDS011;47692;53.714;11.372;2023-02-02T08:53:45;6.55;;;0.88;;
61785;SDS011;47692;53.714;11.372;2023-02-02T08:56:15;13.25;;;1.63;;
61785;SDS011;47692;53.714;11.372;2023-02-02T08:58:43;13.88;;;1.40;;
61785;SDS011;47692;53.714;11.372;2023-02-02T09:01:15;3.58;;;0.70;;
61785;SDS011;47692;53.714;11.372;2023-02-02T09:03:42;4.73;;;0.83;;
61785;SDS011;47692;53.714;11.372;2023-02-02T09:06:09;4.85;;;1.15;;
61785;SDS011;47692;53.714;11.372;2023-02-02T09:08:36;3.70;;;0.70;;
61785;SDS011;47692;53.714;11.372;2023-02-02T09:11:05;8.75;;;1.05;;
61785;SDS011;47692;53.714;11.372;2023-02-02T09:13:32;3.92;;;0.65;;
61785;SDS011;47692;53.714;11.372;2023-02-02T09:15:59;3.38;;;0.88;;
61785;SDS011;47692;53.714;11.372;2023-02-02T09:18:28;5.50;;;0.98;;
61785;SDS011;47692;53.714;11.372;2023-02-02T09:20:53;5.05;;;1.08;;
61785;SDS011;47692;53.714;11.372;2023-02-02T09:23:19;3.80;;;0.77;;
61785;SDS011;47692;53.714;11.372;2023-02-02T09:25:45;5.22;;;1.05;;
61785;SDS011;47692;53.714;11.372;2023-02-02T09:28:10;5.68;;;1.20;;
61785;SDS011;47692;53.714;11.372;2023-02-02T09:30:35;1.88;;;0.55;;
61785;SDS011;47692;53.714;11.372;2023-02-02T09:33:01;6.03;;;0.88;;
61785;SDS011;47692;53.714;11.372;2023-02-02T09:35:26;7.63;;;0.90;;
61785;SDS011;47692;53.714;11.372;2023-02-02T09:37:51;5.97;;;1.02;;
61785;SDS011;47692;53.714;11.372;2023-02-02T09:40:17;8.10;;;0.90;;
61785;SDS011;47692;53.714;11.372;2023-02-02T09:51:27;4.70;;;0.82;;
61785;SDS011;47692;53.714;11.372;2023-02-02T09:54:02;2.50;;;0.88;;
61785;SDS011;47692;53.714;11.372;2023-02-02T09:56:42;6.15;;;0.90;;
61785;SDS011;47692;53.714;11.372;2023-02-02T09:59:16;4.10;;;0.80;;
61785;SDS011;47692;53.714;11.372;2023-02-02T10:01:44;7.43;;;0.80;;
61785;SDS011;47692;53.714;11.372;2023-02-02T10:04:15;4.38;;;1.10;;
61785;SDS011;47692;53.714;11.372;2023-02-02T10:06:45;11.05;;;1.17;;
61785;SDS011;47692;53.714;11.372;2023-02-02T10:14:40;8.05;;;1.23;;
61785;SDS011;47692;53.714;11.372;2023-02-02T10:17:25;7.35;;;1.17;;
61785;SDS011;47692;53.714;11.372;2023-02-02T10:20:01;12.82;;;1.00;;
61785;SDS011;47692;53.714;11.372;2023-02-02T10:22:36;8.40;;;1.10;;
61785;SDS011;47692;53.714;11.372;2023-02-02T10:25:02;10.88;;;1.70;;
61785;SDS011;47692;53.714;11.372;2023-02-02T10:27:34;10.60;;;1.17;;
61785;SDS011;47692;53.714;11.372;2023-02-02T10:30:02;7.28;;;1.25;;
61785;SDS011;47692;53.714;11.372;2023-02-02T10:32:39;9.52;;;1.50;;
61785;SDS011;47692;53.714;11.372;2023-02-02T10:41:28;11.45;;;1.20;;
61785;SDS011;47692;53.714;11.372;2023-02-02T10:44:20;11.93;;;1.25;;
61785;SDS011;47692;53.714;11.372;2023-02-02T10:46:52;9.43;;;1.42;;
61785;SDS011;47692;53.714;11.372;2023-02-02T10:49:28;6.30;;;1.05;;
61785;SDS011;47692;53.714;11.372;2023-02-02T10:52:00;5.47;;;1.65;;
61785;SDS011;47692;53.714;11.372;2023-02-02T10:57:29;8.52;;;1.17;;
61785;SDS011;47692;53.714;11.372;2023-02-02T11:00:07;5.25;;;1.20;;
61785;SDS011;47692;53.714;11.372;2023-02-02T11:02:56;8.13;;;1.35;;
61785;SDS011;47692;53.714;11.372;2023-02-02T11:05:23;9.63;;;2.40;;
61785;SDS011;47692;53.714;11.372;2023-02-02T11:08:11;5.47;;;1.13;;
61785;SDS011;47692;53.714;11.372;2023-02-02T11:10:38;8.30;;;1.05;;
61785;SDS011;47692;53.714;11.372;2023-02-02T11:13:04;8.35;;;1.23;;
61785;SDS011;47692;53.714;11.372;2023-02-02T11:18:24;7.22;;;1.60;;
61785;SDS011;47692;53.714;11.372;2023-02-02T11:20:52;11.38;;;1.77;;
61785;SDS011;47692;53.714;11.372;2023-02-02T11:23:17;2.90;;;1.02;;
61785;SDS011;47692;53.714;11.372;2023-02-02T11:25:55;11.18;;;1.20;;
61785;SDS011;47692;53.714;11.372;2023-02-02T11:28:25;12.45;;;1.67;;
61785;SDS011;47692;53.714;11.372;2023-02-02T11:30:54;9.50;;;1.30;;
61785;SDS011;47692;53.714;11.372;2023-02-02T11:36:00;8.57;;;1.33;;
61785;SDS011;47692;53.714;11.372;2023-02-02T11:38:28;10.15;;;1.52;;
61785;SDS011;47692;53.714;11.372;2023-02-02T11:41:01;5.55;;;1.55;;
61785;SDS011;47692;53.714;11.372;2023-02-02T11:43:39;6.45;;;1.38;;
61785;SDS011;47692;53.714;11.372;2023-02-02T11:46:16;9.63;;;1.35;;
61785;SDS011;47692;53.714;11.372;2023-02-02T11:48:48;6.10;;;1.20;;
61785;SDS011;47692;53.714;11.372;2023-02-02T11:51:21;6.43;;;1.20;;
61785;SDS011;47692;53.714;11.372;2023-02-02T11:53:49;8.00;;;1.10;;
61785;SDS011;47692;53.714;11.372;2023-02-02T11:56:30;7.40;;;1.25;;
61785;SDS011;47692;53.714;11.372;2023-02-02T11:58:59;6.75;;;1.95;;
61785;SDS011;47692;53.714;11.372;2023-02-02T12:01:28;5.43;;;0.93;;
61785;SDS011;47692;53.714;11.372;2023-02-02T12:06:42;6.03;;;1.63;;
61785;SDS011;47692;53.714;11.372;2023-02-02T12:09:14;6.10;;;0.90;;
61785;SDS011;47692;53.714;11.372;2023-02-02T12:14:24;10.57;;;1.25;;
61785;SDS011;47692;53.714;11.372;2023-02-02T12:20:07;9.93;;;1.65;;
61785;SDS011;47692;53.714;11.372;2023-02-02T12:22:40;3.97;;;1.05;;
61785;SDS011;47692;53.714;11.372;2023-02-02T12:31:24;4.95;;;0.90;;
61785;SDS011;47692;53.714;11.372;2023-02-02T12:36:49;3.80;;;1.10;;
61785;SDS011;47692;53.714;11.372;2023-02-02T12:42:22;4.53;;;0.77;;
61785;SDS011;47692;53.714;11.372;2023-02-02T12:50:59;4.10;;;1.00;;
61785;SDS011;47692;53.714;11.372;2023-02-02T13:07:35;3.30;;;0.80;;
61785;SDS011;47692;53.714;11.372;2023-02-02T13:15:18;6.13;;;1.10;;
61785;SDS011;47692;53.714;11.372;2023-02-02T13:20:21;2.92;;;0.75;;
61785;SDS011;47692;53.714;11.372;2023-02-02T13:25:30;3.38;;;1.00;;
61785;SDS011;47692;53.714;11.372;2023-02-02T13:28:02;6.30;;;0.80;;
61785;SDS011;47692;53.714;11.372;2023-02-02T13:30:32;4.97;;;1.30;;
61785;SDS011;47692;53.714;11.372;2023-02-02T13:33:01;10.30;;;1.42;;
61785;SDS011;47692;53.714;11.372;2023-02-02T13:35:41;7.85;;;1.83;;
61785;SDS011;47692;53.714;11.372;2023-02-02T13:38:15;8.43;;;1.25;;
61785;SDS011;47692;53.714;11.372;2023-02-02T13:40:47;3.85;;;1.33;;
61785;SDS011;47692;53.714;11.372;2023-02-02T13:45:59;5.32;;;0.93;;
61785;SDS011;47692;53.714;11.372;2023-02-02T13:48:56;4.47;;;0.90;;
61785;SDS011;47692;53.714;11.372;2023-02-02T13:51:49;3.97;;;1.10;;
61785;SDS011;47692;53.714;11.372;2023-02-02T14:00:24;6.20;;;1.08;;
61785;SDS011;47692;53.714;11.372;2023-02-02T14:03:04;5.45;;;1.23;;
61785;SDS011;47692;53.714;11.372;2023-02-02T14:05:44;5.50;;;0.93;;
61785;SDS011;47692;53.714;11.372;2023-02-02T14:08:27;6.25;;;0.93;;
61785;SDS011;47692;53.714;11.372;2023-02-02T14:13:21;5.97;;;0.95;;
61785;SDS011;47692;53.714;11.372;2023-02-02T14:16:20;4.38;;;0.90;;
61785;SDS011;47692;53.714;11.372;2023-02-02T14:19:13;6.20;;;0.90;;
61785;SDS011;47692;53.714;11.372;2023-02-02T14:29:56;4.47;;;1.17;;
61785;SDS011;47692;53.714;11.372;2023-02-02T14:34:55;11.05;;;1.63;;
61785;SDS011;47692;53.714;11.372;2023-02-02T14:45:37;5.50;;;1.02;;
61785;SDS011;47692;53.714;11.372;2023-02-02T14:53:21;9.38;;;1.35;;
61785;SDS011;47692;53.714;11.372;2023-02-02T14:58:22;3.80;;;0.70;;
61785;SDS011;47692;53.714;11.372;2023-02-02T15:03:48;5.97;;;1.00;;
61785;SDS011;47692;53.714;11.372;2023-02-02T15:06:27;7.60;;;1.17;;
61785;SDS011;47692;53.714;11.372;2023-02-02T15:17:02;3.00;;;0.90;;
61785;SDS011;47692;53.714;11.372;2023-02-02T15:19:37;4.72;;;0.70;;
61785;SDS011;47692;53.714;11.372;2023-02-02T15:25:11;2.65;;;0.70;;
61785;SDS011;47692;53.714;11.372;2023-02-02T15:27:43;3.45;;;0.93;;
61785;SDS011;47692;53.714;11.372;2023-02-02T15:30:15;7.43;;;0.93;;
61785;SDS011;47692;53.714;11.372;2023-02-02T15:32:41;7.03;;;0.90;;
61785;SDS011;47692;53.714;11.372;2023-02-02T15:35:11;3.85;;;0.70;;
61785;SDS011;47692;53.714;11.372;2023-02-02T15:37:45;2.05;;;0.75;;
61785;SDS011;47692;53.714;11.372;2023-02-02T15:40:15;2.22;;;0.55;;
61785;SDS011;47692;53.714;11.372;2023-02-02T15:42:48;2.65;;;0.75;;
61785;SDS011;47692;53.714;11.372;2023-02-02T15:47:52;4.95;;;1.00;;
61785;SDS011;47692;53.714;11.372;2023-02-02T15:50:18;5.22;;;1.08;;
61785;SDS011;47692;53.714;11.372;2023-02-02T15:52:45;5.40;;;1.33;;
61785;SDS011;47692;53.714;11.372;2023-02-02T15:55:19;1.90;;;0.60;;
61785;SDS011;47692;53.714;11.372;2023-02-02T15:57:53;2.97;;;0.90;;
61785;SDS011;47692;53.714;11.372;2023-02-02T16:00:29;3.75;;;0.80;;
61785;SDS011;47692;53.714;11.372;2023-02-02T16:03:08;3.42;;;0.90;;
61785;SDS011;47692;53.714;11.372;2023-02-02T16:05:47;3.20;;;1.17;;
61785;SDS011;47692;53.714;11.372;2023-02-02T16:08:25;4.97;;;1.30;;
61785;SDS011;47692;53.714;11.372;2023-02-02T16:11:04;9.52;;;1.40;;
61785;SDS011;47692;53.714;11.372;2023-02-02T16:13:32;2.45;;;1.00;;
61785;SDS011;47692;53.714;11.372;2023-02-02T16:16:02;4.15;;;1.08;;
61785;SDS011;47692;53.714;11.372;2023-02-02T16:18:31;4.90;;;1.10;;
61785;SDS011;47692;53.714;11.372;2023-02-02T16:20:58;2.03;;;0.90;;
61785;SDS011;47692;53.714;11.372;2023-02-02T16:23:29;5.57;;;1.30;;
61785;SDS011;47692;53.714;11.372;2023-02-02T16:25:58;4.68;;;1.40;;
61785;SDS011;47692;53.714;11.372;2023-02-02T16:28:26;7.47;;;0.90;;
61785;SDS011;47692;53.714;11.372;2023-02-02T16:30:52;6.43;;;1.27;;
61785;SDS011;47692;53.714;11.372;2023-02-02T16:33:34;6.75;;;1.30;;
61785;SDS011;47692;53.714;11.372;2023-02-02T16:38:47;6.53;;;2.67;;
61785;SDS011;47692;53.714;11.372;2023-02-02T16:41:24;8.20;;;3.58;;
61785;SDS011;47692;53.714;11.372;2023-02-02T16:43:50;14.48;;;5.28;;
61785;SDS011;47692;53.714;11.372;2023-02-02T16:46:16;13.68;;;5.22;;
61785;SDS011;47692;53.714;11.372;2023-02-02T16:49:13;7.03;;;4.07;;
61785;SDS011;47692;53.714;11.372;2023-02-02T16:51:41;10.32;;;4.15;;
61785;SDS011;47692;53.714;11.372;2023-02-02T16:56:34;10.98;;;4.00;;
61785;SDS011;47692;53.714;11.372;2023-02-02T16:59:02;8.60;;;4.22;;
61785;SDS011;47692;53.714;11.372;2023-02-02T17:01:38;9.18;;;4.38;;
61785;SDS011;47692;53.714;11.372;2023-02-02T17:04:07;10.38;;;4.22;;
61785;SDS011;47692;53.714;11.372;2023-02-02T17:06:42;8.02;;;3.75;;
61785;SDS011;47692;53.714;11.372;2023-02-02T17:09:41;7.28;;;4.00;;
61785;SDS011;47692;53.714;11.372;2023-02-02T17:17:15;12.52;;;6.30;;
61785;SDS011;47692;53.714;11.372;2023-02-02T17:19:41;14.02;;;5.70;;
61785;SDS011;47692;53.714;11.372;2023-02-02T17:22:06;9.23;;;4.90;;
61785;SDS011;47692;53.714;11.372;2023-02-02T17:24:32;10.13;;;4.93;;
61785;SDS011;47692;53.714;11.372;2023-02-02T17:26:58;10.43;;;3.58;;
61785;SDS011;47692;53.714;11.372;2023-02-02T17:29:24;8.27;;;3.85;;
61785;SDS011;47692;53.714;11.372;2023-02-02T17:31:49;8.05;;;4.05;;